sensor_id;sensor_type;location;lat;lon;timestamp;P1;durP1;ratioP1;P2;durP2;ratioP2
12024;SDS011;6073;53.230;10.444;2023-02-10T00:01:23;55.80;;;27.60;;
12024;SDS011;6073;53.230;10.444;2023-02-10T00:03:50;46.15;;;26.52;;
12024;SDS011;6073;53.230;10.444;2023-02-10T00:06:17;46.00;;;25.20;;
12024;SDS011;6073;53.230;10.444;2023-02-10T00:08:48;51.58;;;26.52;;
12024;SDS011;6073;53.230;10.444;2023-02-10T00:11:25;45.35;;;25.30;;
12024;SDS011;6073;53.230;10.444;2023-02-10T00:14:11;50.30;;;25.10;;
12024;SDS011;6073;53.230;10.444;2023-02-10T00:16:38;50.20;;;25.83;;
12024;SDS011;6073;53.230;10.444;2023-02-10T00:19:04;47.40;;;25.08;;
12024;SDS011;6073;53.230;10.444;2023-02-10T00:21:29;43.60;;;23.35;;
12024;SDS011;6073;53.230;10.444;2023-02-10T00:23:55;42.75;;;23.90;;
12024;SDS011;6073;53.230;10.444;2023-02-10T00:26:21;42.97;;;23.50;;
12024;SDS011;6073;53.230;10.444;2023-02-10T00:28:47;45.55;;;25.35;;
12024;SDS011;6073;53.230;10.444;2023-02-10T00:31:13;46.22;;;24.40;;
12024;SDS011;6073;53.230;10.444;2023-02-10T00:33:40;48.03;;;23.40;;
12024;SDS011;6073;53.230;10.444;2023-02-10T00:36:07;41.67;;;22.85;;
12024;SDS011;6073;53.230;10.444;2023-02-10T00:38:34;41.80;;;23.20;;
12024;SDS011;6073;53.230;10.444;2023-02-10T00:41:09;39.38;;;22.67;;
12024;SDS011;6073;53.230;10.444;2023-02-10T00:43:37;49.08;;;23.67;;
12024;SDS011;6073;53.230;10.444;2023-02-10T00:46:07;43.70;;;24.58;;
12024;SDS011;6073;53.230;10.444;2023-02-10T00:48:33;42.92;;;23.95;;
12024;SDS011;6073;53.230;10.444;2023-02-10T00:50:59;46.72;;;23.98;;
12024;SDS011;6073;53.230;10.444;2023-02-10T00:53:24;51.63;;;24.95;;
12024;SDS011;6073;53.230;10.444;2023-02-10T00:55:51;42.92;;;24.20;;
12024;SDS011;6073;53.230;10.444;2023-02-10T00:58:16;43.20;;;23.60;;
12024;SDS011;6073;53.230;10.444;2023-02-10T01:00:42;46.95;;;25.38;;
12024;SDS011;6073;53.230;10.444;2023-02-10T01:03:08;46.63;;;24.63;;
12024;SDS011;6073;53.230;10.444;2023-02-10T01:05:34;43.88;;;24.65;;
12024;SDS011;6073;53.230;10.444;2023-02-10T01:07:59;46.47;;;24.98;;
12024;SDS011;6073;53.230;10.444;2023-02-10T01:10:25;46.67;;;25.52;;
12024;SDS011;6073;53.230;10.444;2023-02-10T01:12:50;48.13;;;24.17;;
12024;SDS011;6073;53.230;10.444;2023-02-10T01:15:16;49.17;;;24.77;;
12024;SDS011;6073;53.230;10.444;2023-02-10T01:17:42;47.38;;;24.73;;
12024;SDS011;6073;53.230;10.444;2023-02-10T01:20:08;48.40;;;24.77;;
12024;SDS011;6073;53.230;10.444;2023-02-10T01:22:34;52.10;;;26.05;;
12024;SDS011;6073;53.230;10.444;2023-02-10T01:25:00;41.30;;;24.38;;
12024;SDS011;6073;53.230;10.444;2023-02-10T01:27:26;49.55;;;24.70;;
12024;SDS011;6073;53.230;10.444;2023-02-10T01:29:52;48.83;;;24.90;;
12024;SDS011;6073;53.230;10.444;2023-02-10T01:32:17;45.67;;;26.48;;
12024;SDS011;6073;53.230;10.444;2023-02-10T01:34:43;49.95;;;25.30;;
12024;SDS011;6073;53.230;10.444;2023-02-10T01:37:09;48.58;;;24.52;;
12024;SDS011;6073;53.230;10.444;2023-02-10T01:39:34;45.95;;;25.00;;
12024;SDS011;6073;53.230;10.444;2023-02-10T01:42:00;54.25;;;26.70;;
12024;SDS011;6073;53.230;10.444;2023-02-10T01:46:52;45.10;;;25.25;;
12024;SDS011;6073;53.230;10.444;2023-02-10T01:49:21;47.22;;;25.67;;
12024;SDS011;6073;53.230;10.444;2023-02-10T01:54:24;42.92;;;24.90;;
12024;SDS011;6073;53.230;10.444;2023-02-10T01:56:55;43.97;;;24.15;;
12024;SDS011;6073;53.230;10.444;2023-02-10T01:59:21;45.28;;;23.52;;
12024;SDS011;6073;53.230;10.444;2023-02-10T02:01:50;48.35;;;24.83;;
12024;SDS011;6073;53.230;10.444;2023-02-10T02:04:16;45.92;;;24.02;;
12024;SDS011;6073;53.230;10.444;2023-02-10T02:06:42;44.08;;;23.92;;
12024;SDS011;6073;53.230;10.444;2023-02-10T02:09:07;47.45;;;23.92;;
12024;SDS011;6073;53.230;10.444;2023-02-10T02:14:24;44.03;;;24.20;;
12024;SDS011;6073;53.230;10.444;2023-02-10T02:28:08;40.88;;;24.00;;
12024;SDS011;6073;53.230;10.444;2023-02-10T02:33:41;42.13;;;22.73;;
12024;SDS011;6073;53.230;10.444;2023-02-10T02:36:18;38.85;;;22.60;;
12024;SDS011;6073;53.230;10.444;2023-02-10T02:39:00;40.13;;;22.25;;
12024;SDS011;6073;53.230;10.444;2023-02-10T02:41:28;40.10;;;21.52;;
12024;SDS011;6073;53.230;10.444;2023-02-10T02:43:56;33.80;;;20.50;;
12024;SDS011;6073;53.230;10.444;2023-02-10T02:46:30;42.45;;;21.90;;
12024;SDS011;6073;53.230;10.444;2023-02-10T02:49:34;45.25;;;22.70;;
12024;SDS011;6073;53.230;10.444;2023-02-10T02:52:21;39.83;;;22.38;;
12024;SDS011;6073;53.230;10.444;2023-02-10T02:55:01;43.00;;;22.38;;
12024;SDS011;6073;53.230;10.444;2023-02-10T02:57:46;45.35;;;21.95;;
12024;SDS011;6073;53.230;10.444;2023-02-10T03:00:27;46.10;;;22.33;;
12024;SDS011;6073;53.230;10.444;2023-02-10T03:02:54;41.90;;;23.48;;
12024;SDS011;6073;53.230;10.444;2023-02-10T03:05:22;43.25;;;23.55;;
12024;SDS011;6073;53.230;10.444;2023-02-10T03:07:52;43.95;;;22.88;;
12024;SDS011;6073;53.230;10.444;2023-02-10T03:10:18;42.42;;;22.50;;
12024;SDS011;6073;53.230;10.444;2023-02-10T03:12:43;44.05;;;22.13;;
12024;SDS011;6073;53.230;10.444;2023-02-10T03:15:09;40.75;;;22.25;;
12024;SDS011;6073;53.230;10.444;2023-02-10T03:17:36;44.17;;;21.42;;
12024;SDS011;6073;53.230;10.444;2023-02-10T03:20:02;39.03;;;21.35;;
12024;SDS011;6073;53.230;10.444;2023-02-10T03:22:27;36.85;;;21.02;;
12024;SDS011;6073;53.230;10.444;2023-02-10T03:24:53;40.92;;;22.45;;
12024;SDS011;6073;53.230;10.444;2023-02-10T03:27:19;48.45;;;22.52;;
12024;SDS011;6073;53.230;10.444;2023-02-10T03:29:44;43.97;;;22.83;;
12024;SDS011;6073;53.230;10.444;2023-02-10T03:32:10;39.25;;;21.40;;
12024;SDS011;6073;53.230;10.444;2023-02-10T03:34:36;38.60;;;21.05;;
12024;SDS011;6073;53.230;10.444;2023-02-10T03:37:01;39.28;;;21.05;;
12024;SDS011;6073;53.230;10.444;2023-02-10T03:39:27;46.47;;;23.80;;
12024;SDS011;6073;53.230;10.444;2023-02-10T03:41:53;45.65;;;22.55;;
12024;SDS011;6073;53.230;10.444;2023-02-10T03:44:18;40.25;;;22.83;;
12024;SDS011;6073;53.230;10.444;2023-02-10T03:46:44;42.38;;;22.08;;
12024;SDS011;6073;53.230;10.444;2023-02-10T03:49:10;45.20;;;23.35;;
12024;SDS011;6073;53.230;10.444;2023-02-10T03:51:36;39.28;;;22.35;;
12024;SDS011;6073;53.230;10.444;2023-02-10T03:54:01;42.45;;;22.90;;
12024;SDS011;6073;53.230;10.444;2023-02-10T03:56:27;45.58;;;23.45;;
12024;SDS011;6073;53.230;10.444;2023-02-10T03:58:53;40.40;;;23.40;;
12024;SDS011;6073;53.230;10.444;2023-02-10T04:01:18;44.78;;;24.52;;
12024;SDS011;6073;53.230;10.444;2023-02-10T04:03:44;39.55;;;22.73;;
12024;SDS011;6073;53.230;10.444;2023-02-10T04:06:10;39.92;;;24.60;;
12024;SDS011;6073;53.230;10.444;2023-02-10T04:08:37;43.53;;;24.65;;
12024;SDS011;6073;53.230;10.444;2023-02-10T04:11:03;41.45;;;24.30;;
12024;SDS011;6073;53.230;10.444;2023-02-10T04:13:29;41.08;;;23.83;;
12024;SDS011;6073;53.230;10.444;2023-02-10T04:16:08;51.22;;;25.73;;
12024;SDS011;6073;53.230;10.444;2023-02-10T04:18:36;44.05;;;22.83;;
12024;SDS011;6073;53.230;10.444;2023-02-10T04:21:03;44.95;;;25.50;;
12024;SDS011;6073;53.230;10.444;2023-02-10T04:23:30;46.08;;;24.70;;
12024;SDS011;6073;53.230;10.444;2023-02-10T04:25:56;40.33;;;24.83;;
12024;SDS011;6073;53.230;10.444;2023-02-10T04:28:22;46.80;;;25.00;;
12024;SDS011;6073;53.230;10.444;2023-02-10T04:30:51;48.40;;;24.98;;
12024;SDS011;6073;53.230;10.444;2023-02-10T04:33:18;43.10;;;25.35;;
12024;SDS011;6073;53.230;10.444;2023-02-10T04:35:46;45.33;;;23.85;;
12024;SDS011;6073;53.230;10.444;2023-02-10T04:38:12;46.22;;;25.38;;
12024;SDS011;6073;53.230;10.444;2023-02-10T04:40:38;44.90;;;23.95;;
12024;SDS011;6073;53.230;10.444;2023-02-10T04:43:04;43.78;;;25.70;;
12024;SDS011;6073;53.230;10.444;2023-02-10T04:45:30;51.15;;;25.95;;
12024;SDS011;6073;53.230;10.444;2023-02-10T04:47:55;42.28;;;23.80;;
12024;SDS011;6073;53.230;10.444;2023-02-10T04:50:21;55.53;;;27.27;;
12024;SDS011;6073;53.230;10.444;2023-02-10T04:52:46;49.47;;;26.30;;
12024;SDS011;6073;53.230;10.444;2023-02-10T04:55:12;45.20;;;24.38;;
12024;SDS011;6073;53.230;10.444;2023-02-10T04:57:37;44.50;;;24.48;;
12024;SDS011;6073;53.230;10.444;2023-02-10T05:00:04;52.10;;;27.27;;
12024;SDS011;6073;53.230;10.444;2023-02-10T05:02:29;51.45;;;27.38;;
12024;SDS011;6073;53.230;10.444;2023-02-10T05:04:55;48.47;;;26.65;;
12024;SDS011;6073;53.230;10.444;2023-02-10T05:07:21;43.40;;;25.30;;
12024;SDS011;6073;53.230;10.444;2023-02-10T05:09:46;53.35;;;26.98;;
12024;SDS011;6073;53.230;10.444;2023-02-10T05:12:12;55.33;;;27.63;;
12024;SDS011;6073;53.230;10.444;2023-02-10T05:14:37;53.17;;;27.75;;
12024;SDS011;6073;53.230;10.444;2023-02-10T05:17:03;51.70;;;26.40;;
12024;SDS011;6073;53.230;10.444;2023-02-10T05:19:28;43.85;;;25.42;;
12024;SDS011;6073;53.230;10.444;2023-02-10T05:21:54;53.42;;;26.65;;
12024;SDS011;6073;53.230;10.444;2023-02-10T05:24:19;54.50;;;27.08;;
12024;SDS011;6073;53.230;10.444;2023-02-10T05:26:45;46.88;;;25.90;;
12024;SDS011;6073;53.230;10.444;2023-02-10T05:29:11;43.95;;;25.67;;
12024;SDS011;6073;53.230;10.444;2023-02-10T05:31:36;67.47;;;34.08;;
12024;SDS011;6073;53.230;10.444;2023-02-10T05:34:02;47.20;;;25.50;;
12024;SDS011;6073;53.230;10.444;2023-02-10T05:36:27;47.45;;;24.63;;
12024;SDS011;6073;53.230;10.444;2023-02-10T05:38:53;50.15;;;26.90;;
12024;SDS011;6073;53.230;10.444;2023-02-10T05:41:37;54.05;;;24.67;;
12024;SDS011;6073;53.230;10.444;2023-02-10T05:44:02;45.28;;;25.02;;
12024;SDS011;6073;53.230;10.444;2023-02-10T05:46:28;49.08;;;25.77;;
12024;SDS011;6073;53.230;10.444;2023-02-10T05:48:54;53.97;;;25.85;;
12024;SDS011;6073;53.230;10.444;2023-02-10T05:51:20;46.65;;;23.98;;
12024;SDS011;6073;53.230;10.444;2023-02-10T05:53:45;43.85;;;23.92;;
12024;SDS011;6073;53.230;10.444;2023-02-10T05:56:11;47.67;;;25.25;;
12024;SDS011;6073;53.230;10.444;2023-02-10T05:58:37;46.53;;;25.45;;
12024;SDS011;6073;53.230;10.444;2023-02-10T06:01:05;50.60;;;25.00;;
12024;SDS011;6073;53.230;10.444;2023-02-10T06:03:32;52.60;;;26.23;;
12024;SDS011;6073;53.230;10.444;2023-02-10T06:05:58;65.72;;;32.40;;
12024;SDS011;6073;53.230;10.444;2023-02-10T06:08:24;51.17;;;25.42;;
12024;SDS011;6073;53.230;10.444;2023-02-10T06:10:50;51.65;;;25.92;;
12024;SDS011;6073;53.230;10.444;2023-02-10T06:13:15;47.22;;;25.58;;
12024;SDS011;6073;53.230;10.444;2023-02-10T06:15:41;50.50;;;25.48;;
12024;SDS011;6073;53.230;10.444;2023-02-10T06:18:06;53.03;;;29.75;;
12024;SDS011;6073;53.230;10.444;2023-02-10T06:20:32;48.50;;;26.95;;
12024;SDS011;6073;53.230;10.444;2023-02-10T06:22:57;46.90;;;26.90;;
12024;SDS011;6073;53.230;10.444;2023-02-10T06:25:23;51.35;;;26.88;;
12024;SDS011;6073;53.230;10.444;2023-02-10T06:27:48;49.95;;;26.50;;
12024;SDS011;6073;53.230;10.444;2023-02-10T06:30:14;45.42;;;25.25;;
12024;SDS011;6073;53.230;10.444;2023-02-10T06:32:39;46.05;;;26.67;;
12024;SDS011;6073;53.230;10.444;2023-02-10T06:35:05;47.08;;;25.20;;
12024;SDS011;6073;53.230;10.444;2023-02-10T06:37:31;45.17;;;25.73;;
12024;SDS011;6073;53.230;10.444;2023-02-10T06:39:56;44.50;;;25.98;;
12024;SDS011;6073;53.230;10.444;2023-02-10T06:42:22;45.92;;;24.52;;
12024;SDS011;6073;53.230;10.444;2023-02-10T06:44:48;45.45;;;24.85;;
12024;SDS011;6073;53.230;10.444;2023-02-10T06:47:13;44.60;;;25.05;;
12024;SDS011;6073;53.230;10.444;2023-02-10T06:49:42;44.75;;;24.70;;
12024;SDS011;6073;53.230;10.444;2023-02-10T06:52:08;43.13;;;25.10;;
12024;SDS011;6073;53.230;10.444;2023-02-10T06:54:33;51.42;;;24.67;;
12024;SDS011;6073;53.230;10.444;2023-02-10T06:56:59;40.67;;;23.02;;
12024;SDS011;6073;53.230;10.444;2023-02-10T06:59:24;46.03;;;24.20;;
12024;SDS011;6073;53.230;10.444;2023-02-10T07:01:50;46.63;;;23.92;;
12024;SDS011;6073;53.230;10.444;2023-02-10T07:04:16;45.13;;;25.42;;
12024;SDS011;6073;53.230;10.444;2023-02-10T07:06:41;47.97;;;24.17;;
12024;SDS011;6073;53.230;10.444;2023-02-10T07:09:07;43.58;;;24.42;;
12024;SDS011;6073;53.230;10.444;2023-02-10T07:11:32;49.70;;;25.02;;
12024;SDS011;6073;53.230;10.444;2023-02-10T07:13:58;46.17;;;24.98;;
12024;SDS011;6073;53.230;10.444;2023-02-10T07:16:24;40.38;;;24.13;;
12024;SDS011;6073;53.230;10.444;2023-02-10T07:18:50;41.80;;;23.55;;
12024;SDS011;6073;53.230;10.444;2023-02-10T07:21:15;48.58;;;25.52;;
12024;SDS011;6073;53.230;10.444;2023-02-10T07:23:41;46.35;;;25.25;;
12024;SDS011;6073;53.230;10.444;2023-02-10T07:26:06;45.67;;;25.23;;
12024;SDS011;6073;53.230;10.444;2023-02-10T07:28:33;47.03;;;25.85;;
12024;SDS011;6073;53.230;10.444;2023-02-10T07:30:59;45.42;;;24.83;;
12024;SDS011;6073;53.230;10.444;2023-02-10T07:33:24;45.67;;;25.38;;
12024;SDS011;6073;53.230;10.444;2023-02-10T07:35:50;51.72;;;25.20;;
12024;SDS011;6073;53.230;10.444;2023-02-10T07:38:15;43.90;;;23.58;;
12024;SDS011;6073;53.230;10.444;2023-02-10T07:40:41;47.22;;;24.88;;
12024;SDS011;6073;53.230;10.444;2023-02-10T07:43:06;46.25;;;24.13;;
12024;SDS011;6073;53.230;10.444;2023-02-10T07:45:32;43.10;;;23.58;;
12024;SDS011;6073;53.230;10.444;2023-02-10T07:47:57;48.25;;;25.48;;
12024;SDS011;6073;53.230;10.444;2023-02-10T07:50:24;41.33;;;23.90;;
12024;SDS011;6073;53.230;10.444;2023-02-10T07:52:50;43.50;;;21.52;;
12024;SDS011;6073;53.230;10.444;2023-02-10T07:55:16;46.30;;;24.15;;
12024;SDS011;6073;53.230;10.444;2023-02-10T07:57:41;41.63;;;22.33;;
12024;SDS011;6073;53.230;10.444;2023-02-10T08:00:07;41.53;;;24.67;;
12024;SDS011;6073;53.230;10.444;2023-02-10T08:02:34;46.58;;;23.58;;
12024;SDS011;6073;53.230;10.444;2023-02-10T08:04:59;44.38;;;23.40;;
12024;SDS011;6073;53.230;10.444;2023-02-10T08:07:25;47.80;;;25.20;;
12024;SDS011;6073;53.230;10.444;2023-02-10T08:09:51;44.58;;;24.20;;
12024;SDS011;6073;53.230;10.444;2023-02-10T08:12:16;46.45;;;22.67;;
12024;SDS011;6073;53.230;10.444;2023-02-10T08:14:42;48.63;;;25.55;;
12024;SDS011;6073;53.230;10.444;2023-02-10T08:17:07;41.75;;;22.42;;
12024;SDS011;6073;53.230;10.444;2023-02-10T08:19:33;45.42;;;23.50;;
12024;SDS011;6073;53.230;10.444;2023-02-10T08:22:01;46.90;;;24.60;;
12024;SDS011;6073;53.230;10.444;2023-02-10T08:24:27;45.67;;;23.23;;
12024;SDS011;6073;53.230;10.444;2023-02-10T08:26:54;45.47;;;22.65;;
12024;SDS011;6073;53.230;10.444;2023-02-10T08:29:20;41.60;;;22.55;;
12024;SDS011;6073;53.230;10.444;2023-02-10T08:31:48;38.90;;;23.33;;
12024;SDS011;6073;53.230;10.444;2023-02-10T08:34:15;45.05;;;23.38;;
12024;SDS011;6073;53.230;10.444;2023-02-10T08:36:42;45.53;;;24.30;;
12024;SDS011;6073;53.230;10.444;2023-02-10T08:39:08;44.50;;;23.55;;
12024;SDS011;6073;53.230;10.444;2023-02-10T08:41:34;40.88;;;23.77;;
12024;SDS011;6073;53.230;10.444;2023-02-10T08:44:00;50.58;;;24.00;;
12024;SDS011;6073;53.230;10.444;2023-02-10T08:46:25;43.78;;;23.33;;
12024;SDS011;6073;53.230;10.444;2023-02-10T08:48:51;52.90;;;23.73;;
12024;SDS011;6073;53.230;10.444;2023-02-10T08:51:17;44.00;;;23.63;;
12024;SDS011;6073;53.230;10.444;2023-02-10T08:53:43;42.53;;;22.77;;
12024;SDS011;6073;53.230;10.444;2023-02-10T08:56:09;39.50;;;22.30;;
12024;SDS011;6073;53.230;10.444;2023-02-10T08:58:38;43.63;;;23.85;;
12024;SDS011;6073;53.230;10.444;2023-02-10T09:01:13;37.88;;;20.65;;
12024;SDS011;6073;53.230;10.444;2023-02-10T09:03:41;34.35;;;21.40;;
12024;SDS011;6073;53.230;10.444;2023-02-10T09:06:17;43.08;;;22.30;;
12024;SDS011;6073;53.230;10.444;2023-02-10T09:08:48;39.15;;;21.98;;
12024;SDS011;6073;53.230;10.444;2023-02-10T09:11:15;43.58;;;22.55;;
12024;SDS011;6073;53.230;10.444;2023-02-10T09:13:41;39.15;;;21.95;;
12024;SDS011;6073;53.230;10.444;2023-02-10T09:16:07;44.25;;;22.85;;
12024;SDS011;6073;53.230;10.444;2023-02-10T09:18:33;39.58;;;21.95;;
12024;SDS011;6073;53.230;10.444;2023-02-10T09:20:59;39.25;;;21.35;;
12024;SDS011;6073;53.230;10.444;2023-02-10T09:23:25;36.85;;;21.30;;
12024;SDS011;6073;53.230;10.444;2023-02-10T09:25:52;46.45;;;21.48;;
12024;SDS011;6073;53.230;10.444;2023-02-10T09:28:19;40.72;;;21.15;;
12024;SDS011;6073;53.230;10.444;2023-02-10T09:30:44;42.33;;;22.38;;
12024;SDS011;6073;53.230;10.444;2023-02-10T09:33:10;36.83;;;20.30;;
12024;SDS011;6073;53.230;10.444;2023-02-10T09:35:35;39.40;;;21.23;;
12024;SDS011;6073;53.230;10.444;2023-02-10T09:38:01;37.40;;;22.00;;
12024;SDS011;6073;53.230;10.444;2023-02-10T09:40:27;35.08;;;20.58;;
12024;SDS011;6073;53.230;10.444;2023-02-10T09:45:47;36.60;;;20.88;;
12024;SDS011;6073;53.230;10.444;2023-02-10T09:53:52;37.85;;;20.33;;
12024;SDS011;6073;53.230;10.444;2023-02-10T09:56:19;32.15;;;20.40;;
12024;SDS011;6073;53.230;10.444;2023-02-10T10:01:21;39.97;;;20.88;;
12024;SDS011;6073;53.230;10.444;2023-02-10T10:06:38;37.63;;;20.10;;
12024;SDS011;6073;53.230;10.444;2023-02-10T10:09:12;37.80;;;19.98;;
12024;SDS011;6073;53.230;10.444;2023-02-10T10:12:01;40.85;;;20.05;;
12024;SDS011;6073;53.230;10.444;2023-02-10T10:14:27;34.47;;;18.55;;
12024;SDS011;6073;53.230;10.444;2023-02-10T10:22:57;36.13;;;18.88;;
12024;SDS011;6073;53.230;10.444;2023-02-10T10:28:27;33.83;;;18.60;;
12024;SDS011;6073;53.230;10.444;2023-02-10T10:31:13;35.38;;;18.70;;
12024;SDS011;6073;53.230;10.444;2023-02-10T10:33:49;33.00;;;18.50;;
12024;SDS011;6073;53.230;10.444;2023-02-10T10:36:17;33.58;;;18.42;;
12024;SDS011;6073;53.230;10.444;2023-02-10T10:38:49;36.45;;;18.10;;
12024;SDS011;6073;53.230;10.444;2023-02-10T10:41:17;34.40;;;17.98;;
12024;SDS011;6073;53.230;10.444;2023-02-10T10:43:52;30.70;;;16.92;;
12024;SDS011;6073;53.230;10.444;2023-02-10T10:49:03;30.05;;;16.30;;
12024;SDS011;6073;53.230;10.444;2023-02-10T10:51:28;27.27;;;16.20;;
12024;SDS011;6073;53.230;10.444;2023-02-10T10:53:55;30.33;;;16.00;;
12024;SDS011;6073;53.230;10.444;2023-02-10T10:58:55;24.23;;;15.63;;
12024;SDS011;6073;53.230;10.444;2023-02-10T11:01:35;28.17;;;14.63;;
12024;SDS011;6073;53.230;10.444;2023-02-10T11:04:03;26.13;;;14.68;;
12024;SDS011;6073;53.230;10.444;2023-02-10T11:06:37;34.75;;;14.68;;
12024;SDS011;6073;53.230;10.444;2023-02-10T11:09:05;23.45;;;14.38;;
12024;SDS011;6073;53.230;10.444;2023-02-10T11:11:42;30.95;;;15.68;;
12024;SDS011;6073;53.230;10.444;2023-02-10T11:14:16;25.92;;;14.55;;
12024;SDS011;6073;53.230;10.444;2023-02-10T11:16:51;23.42;;;13.48;;
12024;SDS011;6073;53.230;10.444;2023-02-10T11:19:20;26.52;;;13.52;;
12024;SDS011;6073;53.230;10.444;2023-02-10T11:21:48;21.80;;;13.43;;
12024;SDS011;6073;53.230;10.444;2023-02-10T11:24:16;23.05;;;13.30;;
12024;SDS011;6073;53.230;10.444;2023-02-10T11:26:58;24.40;;;13.35;;
12024;SDS011;6073;53.230;10.444;2023-02-10T11:29:27;22.33;;;12.93;;
12024;SDS011;6073;53.230;10.444;2023-02-10T11:31:55;22.52;;;12.55;;
12024;SDS011;6073;53.230;10.444;2023-02-10T11:34:24;22.17;;;13.43;;
12024;SDS011;6073;53.230;10.444;2023-02-10T11:36:53;19.65;;;11.98;;
12024;SDS011;6073;53.230;10.444;2023-02-10T11:39:28;21.02;;;12.57;;
12024;SDS011;6073;53.230;10.444;2023-02-10T11:42:06;19.65;;;11.93;;
12024;SDS011;6073;53.230;10.444;2023-02-10T11:44:53;22.42;;;11.48;;
12024;SDS011;6073;53.230;10.444;2023-02-10T11:47:39;20.23;;;11.45;;
12024;SDS011;6073;53.230;10.444;2023-02-10T11:50:16;21.42;;;11.18;;
12024;SDS011;6073;53.230;10.444;2023-02-10T11:52:45;21.10;;;11.43;;
12024;SDS011;6073;53.230;10.444;2023-02-10T11:55:11;21.75;;;12.07;;
12024;SDS011;6073;53.230;10.444;2023-02-10T11:57:44;20.10;;;10.57;;
12024;SDS011;6073;53.230;10.444;2023-02-10T12:00:34;19.05;;;11.05;;
12024;SDS011;6073;53.230;10.444;2023-02-10T12:05:54;18.48;;;10.85;;
12024;SDS011;6073;53.230;10.444;2023-02-10T12:11:32;17.15;;;10.90;;
12024;SDS011;6073;53.230;10.444;2023-02-10T12:16:55;18.85;;;10.98;;
12024;SDS011;6073;53.230;10.444;2023-02-10T12:22:09;22.00;;;12.05;;
12024;SDS011;6073;53.230;10.444;2023-02-10T12:24:56;15.90;;;10.07;;
12024;SDS011;6073;53.230;10.444;2023-02-10T12:33:09;21.05;;;11.38;;
12024;SDS011;6073;53.230;10.444;2023-02-10T12:36:02;22.38;;;10.10;;
12024;SDS011;6073;53.230;10.444;2023-02-10T12:47:23;18.80;;;10.40;;
12024;SDS011;6073;53.230;10.444;2023-02-10T12:52:48;19.30;;;9.98;;
12024;SDS011;6073;53.230;10.444;2023-02-10T12:55:20;15.00;;;10.10;;
12024;SDS011;6073;53.230;10.444;2023-02-10T12:58:03;16.77;;;9.88;;
12024;SDS011;6073;53.230;10.444;2023-02-10T13:00:37;14.85;;;9.43;;
12024;SDS011;6073;53.230;10.444;2023-02-10T13:03:14;18.52;;;9.95;;
12024;SDS011;6073;53.230;10.444;2023-02-10T13:05:51;16.67;;;9.48;;
12024;SDS011;6073;53.230;10.444;2023-02-10T13:08:26;16.67;;;10.60;;
12024;SDS011;6073;53.230;10.444;2023-02-10T13:11:00;18.67;;;9.73;;
12024;SDS011;6073;53.230;10.444;2023-02-10T13:13:50;17.13;;;9.93;;
12024;SDS011;6073;53.230;10.444;2023-02-10T13:16:19;16.98;;;10.48;;
12024;SDS011;6073;53.230;10.444;2023-02-10T13:18:55;18.23;;;9.07;;
12024;SDS011;6073;53.230;10.444;2023-02-10T13:21:34;16.02;;;9.20;;
12024;SDS011;6073;53.230;10.444;2023-02-10T13:24:17;18.15;;;10.45;;
12024;SDS011;6073;53.230;10.444;2023-02-10T13:27:23;16.58;;;8.85;;
12024;SDS011;6073;53.230;10.444;2023-02-10T13:33:00;18.63;;;9.85;;
12024;SDS011;6073;53.230;10.444;2023-02-10T13:35:47;17.08;;;9.10;;
12024;SDS011;6073;53.230;10.444;2023-02-10T13:38:15;17.75;;;9.23;;
12024;SDS011;6073;53.230;10.444;2023-02-10T13:40:48;18.15;;;9.75;;
12024;SDS011;6073;53.230;10.444;2023-02-10T13:43:32;18.42;;;9.60;;
12024;SDS011;6073;53.230;10.444;2023-02-10T13:45:59;15.25;;;9.25;;
12024;SDS011;6073;53.230;10.444;2023-02-10T13:48:30;23.08;;;9.98;;
12024;SDS011;6073;53.230;10.444;2023-02-10T13:51:04;17.45;;;10.15;;
12024;SDS011;6073;53.230;10.444;2023-02-10T14:01:41;17.83;;;9.55;;
12024;SDS011;6073;53.230;10.444;2023-02-10T14:06:45;19.73;;;9.70;;
12024;SDS011;6073;53.230;10.444;2023-02-10T14:11:44;17.00;;;10.55;;
12024;SDS011;6073;53.230;10.444;2023-02-10T14:19:31;19.15;;;10.20;;
12024;SDS011;6073;53.230;10.444;2023-02-10T14:22:02;15.95;;;9.73;;
12024;SDS011;6073;53.230;10.444;2023-02-10T14:24:29;17.88;;;10.00;;
12024;SDS011;6073;53.230;10.444;2023-02-10T14:27:01;20.77;;;10.57;;
12024;SDS011;6073;53.230;10.444;2023-02-10T14:29:29;17.70;;;10.57;;
12024;SDS011;6073;53.230;10.444;2023-02-10T14:31:58;16.45;;;10.35;;
12024;SDS011;6073;53.230;10.444;2023-02-10T14:34:33;17.00;;;10.68;;
12024;SDS011;6073;53.230;10.444;2023-02-10T14:37:02;22.45;;;10.80;;
12024;SDS011;6073;53.230;10.444;2023-02-10T14:39:52;20.30;;;9.43;;
12024;SDS011;6073;53.230;10.444;2023-02-10T14:42:22;19.95;;;9.93;;
12024;SDS011;6073;53.230;10.444;2023-02-10T14:44:50;16.05;;;9.93;;
12024;SDS011;6073;53.230;10.444;2023-02-10T14:47:21;20.98;;;10.55;;
12024;SDS011;6073;53.230;10.444;2023-02-10T14:49:53;20.90;;;10.48;;
12024;SDS011;6073;53.230;10.444;2023-02-10T14:52:30;19.77;;;10.27;;
12024;SDS011;6073;53.230;10.444;2023-02-10T14:55:02;22.20;;;9.80;;
12024;SDS011;6073;53.230;10.444;2023-02-10T14:57:46;17.40;;;10.00;;
12024;SDS011;6073;53.230;10.444;2023-02-10T15:00:11;21.92;;;11.13;;
12024;SDS011;6073;53.230;10.444;2023-02-10T15:02:38;18.50;;;9.90;;
12024;SDS011;6073;53.230;10.444;2023-02-10T15:05:06;21.58;;;10.35;;
12024;SDS011;6073;53.230;10.444;2023-02-10T15:07:35;19.63;;;10.60;;
12024;SDS011;6073;53.230;10.444;2023-02-10T15:13:08;21.13;;;10.07;;
12024;SDS011;6073;53.230;10.444;2023-02-10T15:15:35;18.05;;;10.05;;
12024;SDS011;6073;53.230;10.444;2023-02-10T15:20:33;19.08;;;9.88;;
12024;SDS011;6073;53.230;10.444;2023-02-10T15:27:58;21.80;;;11.65;;
12024;SDS011;6073;53.230;10.444;2023-02-10T15:30:27;21.58;;;10.70;;
12024;SDS011;6073;53.230;10.444;2023-02-10T15:32:57;19.27;;;10.30;;
12024;SDS011;6073;53.230;10.444;2023-02-10T15:35:24;16.48;;;10.63;;
12024;SDS011;6073;53.230;10.444;2023-02-10T15:37:51;19.98;;;11.52;;
12024;SDS011;6073;53.230;10.444;2023-02-10T15:40:21;21.48;;;11.45;;
12024;SDS011;6073;53.230;10.444;2023-02-10T15:42:58;22.67;;;11.25;;
12024;SDS011;6073;53.230;10.444;2023-02-10T15:45:29;19.10;;;10.93;;
12024;SDS011;6073;53.230;10.444;2023-02-10T15:48:07;19.25;;;11.18;;
12024;SDS011;6073;53.230;10.444;2023-02-10T15:50:34;20.23;;;11.20;;
12024;SDS011;6073;53.230;10.444;2023-02-10T15:53:00;18.40;;;11.15;;
12024;SDS011;6073;53.230;10.444;2023-02-10T15:55:28;17.85;;;11.93;;
12024;SDS011;6073;53.230;10.444;2023-02-10T15:57:57;19.58;;;11.38;;
12024;SDS011;6073;53.230;10.444;2023-02-10T16:00:27;21.83;;;12.80;;
12024;SDS011;6073;53.230;10.444;2023-02-10T16:02:55;18.50;;;11.95;;
12024;SDS011;6073;53.230;10.444;2023-02-10T16:05:21;22.98;;;12.88;;
12024;SDS011;6073;53.230;10.444;2023-02-10T16:07:47;22.08;;;13.85;;
12024;SDS011;6073;53.230;10.444;2023-02-10T16:10:15;21.50;;;13.43;;
12024;SDS011;6073;53.230;10.444;2023-02-10T16:12:45;24.25;;;13.38;;
12024;SDS011;6073;53.230;10.444;2023-02-10T16:15:12;26.02;;;14.02;;
12024;SDS011;6073;53.230;10.444;2023-02-10T16:17:39;23.05;;;12.73;;
12024;SDS011;6073;53.230;10.444;2023-02-10T16:20:09;24.20;;;14.18;;
12024;SDS011;6073;53.230;10.444;2023-02-10T16:22:39;24.70;;;14.48;;
12024;SDS011;6073;53.230;10.444;2023-02-10T16:25:05;24.38;;;14.15;;